createdAt,value
2018-08-24T00:00:00.803Z,61.46
2018-08-24T00:02:28.990Z,61.55
2018-08-24T00:04:57.158Z,61.10
2018-08-24T00:07:25.402Z,61.25
2018-08-24T00:09:53.522Z,59.90
2018-08-24T00:12:21.746Z,60.06
2018-08-24T00:14:49.931Z,60.38
2018-08-24T00:17:23.219Z,59.39
2018-08-24T00:19:51.407Z,59.86
2018-08-24T00:22:19.571Z,58.69
2018-08-24T00:24:47.750Z,58.82
2018-08-24T00:27:15.941Z,58.69
2018-08-24T00:29:44.122Z,58.88
2018-08-24T00:32:12.294Z,60.37
2018-08-24T00:34:40.482Z,60.64
2018-08-24T00:37:08.659Z,60.88
2018-08-24T00:39:36.871Z,62.15
2018-08-24T00:42:05.080Z,63.25
2018-08-24T00:44:33.246Z,63.61
2018-08-24T00:47:01.544Z,64.88
2018-08-24T00:49:29.718Z,67.24
2018-08-24T00:51:58.246Z,68.09
2018-08-24T00:54:26.420Z,69.18
2018-08-24T00:56:54.606Z,70.47
2018-08-24T00:59:22.791Z,70.74
2018-08-24T01:01:50.986Z,71.51
2018-08-24T01:04:24.466Z,71.60
2018-08-24T01:06:52.663Z,72.61
2018-08-24T01:09:20.870Z,72.55
2018-08-24T01:11:54.423Z,73.16
2018-08-24T01:14:22.620Z,72.65
2018-08-24T01:16:55.980Z,73.00
2018-08-24T01:19:24.162Z,73.45
2018-08-24T01:21:52.377Z,73.70
2018-08-24T01:24:22.163Z,73.85
2018-08-24T01:26:55.578Z,74.00
2018-08-24T01:29:23.786Z,74.10
2018-08-24T01:31:51.964Z,73.80
2018-08-24T01:34:20.163Z,73.88
2018-08-24T01:36:48.333Z,73.56
2018-08-24T01:39:16.518Z,73.45
2018-08-24T01:41:44.698Z,73.12
2018-08-24T01:44:12.879Z,73.65
2018-08-24T01:46:41.078Z,74.00
2018-08-24T01:49:09.248Z,74.13
2018-08-24T01:51:37.439Z,74.27
2018-08-24T01:54:05.652Z,74.24
2018-08-24T01:56:33.815Z,74.95
2018-08-24T01:59:02.079Z,74.58
2018-08-24T02:01:30.230Z,74.74
2018-08-24T02:03:58.446Z,75.09
2018-08-24T02:06:26.634Z,74.67
2018-08-24T02:08:54.827Z,74.46
2018-08-24T02:11:28.156Z,75.44
2018-08-24T02:14:01.597Z,74.84
2018-08-24T02:16:32.976Z,74.50
2018-08-24T02:19:06.474Z,75.19
2018-08-24T02:21:40.027Z,74.84
2018-08-24T02:24:09.279Z,75.14
2018-08-24T02:26:37.580Z,75.04
2018-08-24T02:29:05.788Z,75.17
2018-08-24T02:31:50.282Z,75.74
2018-08-24T02:34:18.481Z,75.69
2018-08-24T02:36:46.805Z,76.16
2018-08-24T02:39:16.345Z,75.92
2018-08-24T02:41:44.686Z,75.73
2018-08-24T02:44:13.220Z,75.40
2018-08-24T02:46:42.487Z,74.84
2018-08-24T02:49:10.704Z,75.23
2018-08-24T02:51:38.914Z,74.89
2018-08-24T02:54:07.118Z,74.26
2018-08-24T02:56:35.323Z,74.56
2018-08-24T02:59:03.555Z,73.68
2018-08-24T03:01:31.742Z,73.34
2018-08-24T03:03:59.924Z,73.35
2018-08-24T03:06:28.122Z,72.95
2018-08-24T03:08:56.328Z,72.90
2018-08-24T03:11:24.559Z,73.36
2018-08-24T03:13:53.028Z,73.14
2018-08-24T03:16:21.317Z,73.10
2018-08-24T03:18:49.394Z,73.17
2018-08-24T03:21:17.756Z,72.99
2018-08-24T03:23:46.027Z,72.31
2018-08-24T03:26:14.416Z,72.39
2018-08-24T03:28:42.595Z,71.73
2018-08-24T03:31:10.819Z,71.95
2018-08-24T03:33:38.999Z,71.85
2018-08-24T03:36:07.307Z,71.53
2018-08-24T03:38:35.497Z,71.67
2018-08-24T03:41:03.703Z,71.94
2018-08-24T03:43:31.880Z,71.61
2018-08-24T03:46:00.109Z,72.15
2018-08-24T03:48:28.252Z,71.43
2018-08-24T03:50:56.485Z,71.07
2018-08-24T03:53:24.685Z,71.06
2018-08-24T03:55:52.858Z,70.71
2018-08-24T03:58:21.047Z,70.67
2018-08-24T04:00:49.254Z,70.56
2018-08-24T04:03:17.458Z,70.25
2018-08-24T04:05:45.690Z,70.37
2018-08-24T04:08:13.879Z,69.97
2018-08-24T04:10:42.090Z,70.47
2018-08-24T04:13:10.288Z,69.85
2018-08-24T04:15:38.467Z,69.34
2018-08-24T04:18:06.722Z,69.58
2018-08-24T04:20:34.952Z,68.80
2018-08-24T04:23:03.199Z,68.76
2018-08-24T04:25:31.399Z,68.85
2018-08-24T04:27:59.594Z,68.85
2018-08-24T04:30:27.794Z,68.36
2018-08-24T04:32:55.987Z,68.41
2018-08-24T04:35:24.184Z,68.67
2018-08-24T04:37:52.656Z,68.16
2018-08-24T04:40:20.916Z,68.39
2018-08-24T04:42:49.026Z,68.80
2018-08-24T04:45:17.311Z,68.83
2018-08-24T04:47:45.514Z,68.84
2018-08-24T04:50:13.691Z,68.89
2018-08-24T04:52:41.890Z,68.75
2018-08-24T04:55:10.082Z,69.25
2018-08-24T04:57:38.275Z,68.00
2018-08-24T05:00:08.615Z,68.37
2018-08-24T05:02:36.959Z,68.76
2018-08-24T05:05:05.886Z,68.37
2018-08-24T05:07:34.072Z,68.77
2018-08-24T05:10:02.260Z,68.58
2018-08-24T05:12:30.431Z,68.37
2018-08-24T05:14:58.632Z,68.51
2018-08-24T05:17:26.834Z,68.80
2018-08-24T05:19:55.325Z,68.28
2018-08-24T05:22:23.523Z,69.15
2018-08-24T05:24:51.831Z,68.76
2018-08-24T05:27:19.932Z,68.65
2018-08-24T05:29:48.122Z,68.60
2018-08-24T05:32:16.370Z,68.24
2018-08-24T05:34:44.560Z,68.40
2018-08-24T05:37:12.754Z,67.76
2018-08-24T05:39:40.956Z,67.58
2018-08-24T05:42:09.131Z,67.25
2018-08-24T05:44:37.330Z,67.56
2018-08-24T05:47:05.536Z,68.08
2018-08-24T05:49:33.724Z,67.51
2018-08-24T05:52:01.903Z,67.65
2018-08-24T05:54:30.089Z,67.50
2018-08-24T05:56:58.283Z,67.70
2018-08-24T05:59:26.483Z,67.26
2018-08-24T06:01:55.323Z,66.93
2018-08-24T06:04:23.519Z,67.41
2018-08-24T06:06:51.736Z,67.13
2018-08-24T06:09:19.924Z,67.12
2018-08-24T06:11:48.118Z,66.64
2018-08-24T06:14:16.334Z,66.68
2018-08-24T06:16:49.741Z,66.56
2018-08-24T06:19:18.428Z,66.50
2018-08-24T06:21:46.647Z,66.95
2018-08-24T06:24:14.843Z,66.87
2018-08-24T06:26:43.035Z,65.89
2018-08-24T06:29:11.229Z,65.67
2018-08-24T06:31:39.427Z,65.45
2018-08-24T06:34:07.614Z,66.10
2018-08-24T06:36:35.802Z,66.18
2018-08-24T06:39:06.190Z,65.33
2018-08-24T06:41:34.383Z,64.67
2018-08-24T06:44:02.690Z,64.92
2018-08-24T06:46:30.867Z,65.03
2018-08-24T06:48:59.059Z,65.28
2018-08-24T06:51:27.252Z,65.38
2018-08-24T06:53:55.541Z,65.15
2018-08-24T06:56:23.643Z,65.38
2018-08-24T06:58:51.847Z,64.80
2018-08-24T07:01:20.059Z,65.22
2018-08-24T07:03:48.243Z,65.12
2018-08-24T07:06:16.430Z,64.45
2018-08-24T07:08:44.627Z,65.21
2018-08-24T07:11:16.626Z,64.69
2018-08-24T07:13:46.923Z,64.61
2018-08-24T07:16:15.150Z,64.48
2018-08-24T07:18:43.359Z,64.37
2018-08-24T07:21:11.559Z,63.89
2018-08-24T07:23:39.753Z,64.45
2018-08-24T07:26:07.954Z,63.28
2018-08-24T07:28:36.143Z,63.21
2018-08-24T07:31:04.330Z,63.66
2018-08-24T07:33:32.527Z,62.73
2018-08-24T07:36:00.718Z,63.95
2018-08-24T07:38:28.903Z,63.59
2018-08-24T07:40:57.094Z,63.44
2018-08-24T07:43:25.271Z,63.10
2018-08-24T07:45:53.464Z,62.88
2018-08-24T07:48:21.767Z,62.78
2018-08-24T07:50:50.013Z,63.08
2018-08-24T07:53:18.151Z,63.33
2018-08-24T07:55:46.349Z,63.73
2018-08-24T07:58:14.558Z,63.94
2018-08-24T08:00:42.744Z,63.59
2018-08-24T08:03:10.934Z,63.21
2018-08-24T08:05:39.124Z,62.97
2018-08-24T08:08:07.315Z,63.15
2018-08-24T08:10:40.346Z,63.70
2018-08-24T08:13:10.059Z,63.88
2018-08-24T08:15:38.237Z,63.57
2018-08-24T08:18:06.483Z,62.99
2018-08-24T08:20:34.654Z,63.08
2018-08-24T08:23:02.925Z,63.04
2018-08-24T08:25:31.148Z,63.25
2018-08-24T08:27:59.335Z,62.89
2018-08-24T08:30:27.529Z,62.91
2018-08-24T08:32:55.734Z,62.33
2018-08-24T08:35:23.985Z,62.94
2018-08-24T08:37:52.182Z,63.30
2018-08-24T08:40:20.379Z,62.74
2018-08-24T08:42:48.571Z,62.36
2018-08-24T08:45:16.801Z,62.07
2018-08-24T08:47:44.970Z,62.13
2018-08-24T08:50:13.222Z,61.84
2018-08-24T08:52:41.427Z,61.55
2018-08-24T08:55:09.613Z,60.59
2018-08-24T08:57:37.816Z,60.88
2018-08-24T09:00:06.288Z,60.81
2018-08-24T09:02:34.469Z,60.69
2018-08-24T09:05:02.699Z,60.82
2018-08-24T09:07:30.890Z,60.10
2018-08-24T09:09:59.090Z,60.21
2018-08-24T09:12:27.283Z,59.86
2018-08-24T09:14:55.495Z,58.55
2018-08-24T09:17:28.907Z,59.08
2018-08-24T09:20:02.403Z,58.93
2018-08-24T09:22:35.850Z,57.09
2018-08-24T09:25:09.283Z,57.30
2018-08-24T09:28:41.304Z,57.63
2018-08-24T09:31:16.455Z,56.69
2018-08-24T09:33:44.672Z,55.72
2018-08-24T09:36:18.870Z,54.64
2018-08-24T09:38:47.407Z,53.04
2018-08-24T09:41:15.591Z,53.52
2018-08-24T09:43:49.183Z,52.34
2018-08-24T09:46:17.371Z,51.63
2018-08-24T09:48:50.751Z,50.67
2018-08-24T09:51:24.302Z,50.96
2018-08-24T09:53:57.815Z,51.20
2018-08-24T09:56:27.071Z,51.42
2018-08-24T09:58:55.244Z,50.98
2018-08-24T10:01:28.754Z,50.32
2018-08-24T10:04:02.286Z,49.35
2018-08-24T10:06:35.887Z,48.74
2018-08-24T10:09:05.963Z,46.75
2018-08-24T10:11:34.135Z,45.33
2018-08-24T10:14:02.327Z,45.37
2018-08-24T10:16:30.528Z,45.86
2018-08-24T10:18:58.751Z,46.23
2018-08-24T10:21:26.938Z,46.68
2018-08-24T10:23:55.116Z,45.72
2018-08-24T10:26:23.275Z,45.46
2018-08-24T10:28:51.487Z,44.88
2018-08-24T10:31:19.668Z,45.43
2018-08-24T10:33:47.876Z,45.14
2018-08-24T10:36:16.021Z,45.00
2018-08-24T10:38:44.186Z,44.98
2018-08-24T10:41:12.431Z,43.26
2018-08-24T10:43:40.523Z,43.40
2018-08-24T10:46:08.694Z,41.54
2018-08-24T10:48:36.859Z,42.34
2018-08-24T10:51:05.068Z,41.32
2018-08-24T10:53:33.235Z,41.05
2018-08-24T10:56:01.444Z,39.80
2018-08-24T10:58:29.611Z,40.49
2018-08-24T11:00:57.795Z,39.89
2018-08-24T11:03:25.992Z,39.65
2018-08-24T11:05:54.200Z,40.04
2018-08-24T11:08:22.374Z,38.35
2018-08-24T11:10:50.578Z,38.98
2018-08-24T11:13:18.755Z,39.95
2018-08-24T11:15:49.622Z,39.46
2018-08-24T11:18:17.900Z,38.97
2018-08-24T11:20:46.098Z,38.82
2018-08-24T11:23:14.288Z,37.42
2018-08-24T11:25:42.479Z,36.14
2018-08-24T11:28:10.716Z,34.92
2018-08-24T11:30:38.915Z,35.13
2018-08-24T11:33:07.104Z,35.81
2018-08-24T11:35:35.279Z,36.10
2018-08-24T11:38:03.454Z,34.20
2018-08-24T11:40:31.646Z,32.51
2018-08-24T11:42:59.819Z,32.37
2018-08-24T11:45:28.022Z,32.25
2018-08-24T11:47:56.278Z,34.21
2018-08-24T11:50:25.231Z,34.68
2018-08-24T11:52:53.402Z,34.38
2018-08-24T11:55:21.603Z,34.66
2018-08-24T11:57:49.771Z,34.76
2018-08-24T12:00:17.946Z,33.75
2018-08-24T12:02:46.177Z,32.73
2018-08-24T12:05:14.320Z,32.47
2018-08-24T12:07:42.512Z,32.91
2018-08-24T12:10:10.359Z,32.99
2018-08-24T12:12:38.619Z,34.29
2018-08-24T12:15:06.723Z,34.26
2018-08-24T12:17:36.660Z,34.80
2018-08-24T12:20:05.480Z,34.48
2018-08-24T12:22:33.653Z,34.58
2018-08-24T12:25:01.839Z,34.35
2018-08-24T12:27:30.023Z,34.17
2018-08-24T12:29:58.187Z,33.37
2018-08-24T12:32:26.371Z,33.06
2018-08-24T12:34:54.653Z,32.59
2018-08-24T12:37:22.735Z,32.68
2018-08-24T12:39:50.902Z,31.50
2018-08-24T12:42:19.098Z,32.15
2018-08-24T12:44:47.289Z,32.04
2018-08-24T12:47:15.470Z,32.42
2018-08-24T12:49:43.727Z,31.31
2018-08-24T12:52:11.963Z,32.26
2018-08-24T12:54:40.106Z,32.22
2018-08-24T12:57:08.287Z,33.03
2018-08-24T12:59:36.489Z,32.86
2018-08-24T13:02:04.675Z,33.28
2018-08-24T13:04:32.866Z,33.83
2018-08-24T13:07:01.049Z,33.68
2018-08-24T13:09:29.221Z,32.87
2018-08-24T13:11:57.395Z,31.89
2018-08-24T13:14:25.575Z,32.54
2018-08-24T13:16:53.751Z,32.36
2018-08-24T13:19:21.947Z,31.92
2018-08-24T13:21:50.112Z,32.53
2018-08-24T13:24:18.294Z,32.44
2018-08-24T13:26:46.491Z,32.70
2018-08-24T13:29:14.673Z,33.02
2018-08-24T13:31:42.867Z,33.55
2018-08-24T13:34:11.034Z,32.78
2018-08-24T13:36:39.222Z,32.65
2018-08-24T13:39:08.184Z,32.49
2018-08-24T13:41:36.458Z,33.14
2018-08-24T13:44:04.654Z,33.00
2018-08-24T13:46:32.863Z,32.96
2018-08-24T13:49:01.087Z,33.90
2018-08-24T13:51:29.276Z,34.04
2018-08-24T13:53:57.456Z,34.19
2018-08-24T13:56:25.639Z,33.08
2018-08-24T13:58:53.819Z,31.49
2018-08-24T14:01:22.007Z,32.09
2018-08-24T14:03:50.192Z,31.53
2018-08-24T14:06:18.359Z,31.66
2018-08-24T14:08:46.539Z,33.15
2018-08-24T14:11:14.708Z,32.53
2018-08-24T14:13:42.880Z,33.01
2018-08-24T14:16:11.058Z,32.01
2018-08-24T14:18:39.235Z,32.40
2018-08-24T14:21:07.410Z,33.18
2018-08-24T14:23:35.592Z,33.38
2018-08-24T14:26:03.771Z,32.39
2018-08-24T14:28:31.938Z,31.87
2018-08-24T14:31:00.110Z,32.06
2018-08-24T14:33:28.295Z,31.45
2018-08-24T14:35:56.456Z,32.74
2018-08-24T14:38:24.708Z,31.32
2018-08-24T14:40:52.815Z,32.33
2018-08-24T14:43:21.026Z,32.63
2018-08-24T14:45:49.219Z,32.11
2018-08-24T14:48:17.462Z,33.15
2018-08-24T14:50:45.598Z,32.96
2018-08-24T14:53:13.793Z,33.65
2018-08-24T14:55:42.008Z,33.45
2018-08-24T14:58:10.220Z,32.98
2018-08-24T15:00:38.383Z,33.08
2018-08-24T15:03:06.595Z,33.44
2018-08-24T15:05:34.777Z,33.56
2018-08-24T15:08:02.939Z,33.30
2018-08-24T15:10:31.115Z,34.01
2018-08-24T15:12:59.286Z,33.71
2018-08-24T15:15:27.451Z,34.37
2018-08-24T15:17:55.615Z,34.32
2018-08-24T15:20:23.787Z,34.08
2018-08-24T15:22:52.008Z,33.26
2018-08-24T15:25:20.135Z,33.45
2018-08-24T15:27:48.303Z,33.58
2018-08-24T15:30:16.475Z,33.24
2018-08-24T15:32:44.639Z,33.45
2018-08-24T15:35:12.907Z,32.54
2018-08-24T15:37:40.992Z,33.25
2018-08-24T15:40:09.163Z,33.75
2018-08-24T15:42:37.343Z,34.58
2018-08-24T15:45:05.623Z,35.02
2018-08-24T15:47:33.810Z,34.49
2018-08-24T15:50:01.987Z,34.66
2018-08-24T15:52:30.184Z,34.78
2018-08-24T15:54:58.348Z,34.76
2018-08-24T15:57:26.531Z,34.77
2018-08-24T15:59:54.696Z,34.88
2018-08-24T16:02:22.903Z,34.66
2018-08-24T16:04:51.075Z,34.93
2018-08-24T16:07:19.257Z,35.25
2018-08-24T16:09:47.430Z,35.03
2018-08-24T16:12:15.674Z,35.14
2018-08-24T16:14:43.787Z,35.01
2018-08-24T16:17:12.354Z,35.38
2018-08-24T16:19:40.519Z,35.52
2018-08-24T16:22:08.799Z,35.28
2018-08-24T16:24:36.883Z,35.33
2018-08-24T16:27:07.675Z,35.51
2018-08-24T16:29:35.854Z,35.46
2018-08-24T16:32:04.032Z,35.50
2018-08-24T16:34:32.199Z,36.15
2018-08-24T16:37:00.405Z,36.11
2018-08-24T16:39:28.547Z,36.57
2018-08-24T16:41:56.716Z,36.43
2018-08-24T16:44:24.894Z,36.86
2018-08-24T16:46:53.067Z,37.44
2018-08-24T16:49:21.242Z,37.64
2018-08-24T16:51:49.407Z,38.06
2018-08-24T16:54:17.572Z,37.71
2018-08-24T16:56:45.749Z,37.71
2018-08-24T16:59:13.932Z,37.96
2018-08-24T17:01:42.120Z,38.22
2018-08-24T17:04:10.302Z,38.11
2018-08-24T17:06:38.464Z,38.21
2018-08-24T17:09:09.123Z,38.23
2018-08-24T17:11:37.315Z,37.78
2018-08-24T17:14:05.620Z,37.20
2018-08-24T17:16:33.826Z,37.35
2018-08-24T17:19:02.029Z,37.34
2018-08-24T17:21:30.200Z,37.52
2018-08-24T17:23:58.458Z,37.66
2018-08-24T17:26:26.630Z,38.12
2018-08-24T17:28:54.852Z,37.25
2018-08-24T17:31:23.023Z,37.97
2018-08-24T17:33:51.190Z,37.64
2018-08-24T17:36:19.376Z,37.42
2018-08-24T17:38:47.568Z,37.74
2018-08-24T17:41:15.747Z,36.83
2018-08-24T17:43:44.228Z,37.20
2018-08-24T17:46:12.410Z,37.11
2018-08-24T17:48:40.575Z,37.05
2018-08-24T17:51:08.751Z,37.11
2018-08-24T17:53:36.915Z,36.72
2018-08-24T17:56:05.108Z,37.26
2018-08-24T17:58:33.294Z,37.41
2018-08-24T18:01:01.559Z,37.59
2018-08-24T18:03:29.761Z,37.69
2018-08-24T18:05:57.939Z,37.92
2018-08-24T18:08:26.115Z,37.63
2018-08-24T18:10:54.298Z,38.10
2018-08-24T18:13:22.554Z,38.03
2018-08-24T18:15:50.722Z,37.91
2018-08-24T18:18:18.898Z,38.38
2018-08-24T18:20:47.265Z,38.38
2018-08-24T18:23:15.445Z,38.60
2018-08-24T18:25:43.638Z,38.35
2018-08-24T18:28:11.823Z,38.72
2018-08-24T18:30:40.002Z,39.63
2018-08-24T18:33:08.182Z,39.80
2018-08-24T18:35:36.359Z,39.16
2018-08-24T18:38:04.555Z,38.77
2018-08-24T18:40:32.751Z,39.06
2018-08-24T18:43:00.932Z,39.17
2018-08-24T18:45:29.110Z,39.30
2018-08-24T18:47:57.298Z,39.35
2018-08-24T18:50:25.475Z,39.61
2018-08-24T18:52:53.646Z,39.26
2018-08-24T18:55:21.816Z,38.80
2018-08-24T18:57:50.035Z,38.86
2018-08-24T19:00:18.379Z,39.26
2018-08-24T19:02:46.567Z,38.98
2018-08-24T19:05:14.748Z,38.62
2018-08-24T19:07:42.915Z,38.76
2018-08-24T19:10:11.089Z,39.03
2018-08-24T19:12:39.260Z,38.92
2018-08-24T19:15:07.508Z,39.58
2018-08-24T19:18:39.318Z,38.45
2018-08-24T19:21:12.720Z,38.76
2018-08-24T19:23:40.888Z,38.52
2018-08-24T19:26:09.079Z,38.58
2018-08-24T19:28:42.411Z,38.84
2018-08-24T19:31:10.591Z,38.73
2018-08-24T19:33:38.783Z,39.13
2018-08-24T19:36:07.075Z,39.04
2018-08-24T19:38:35.247Z,39.10
2018-08-24T19:41:08.762Z,38.99
2018-08-24T19:43:36.938Z,39.16
2018-08-24T19:46:05.138Z,38.89
2018-08-24T19:48:38.507Z,38.84
2018-08-24T19:51:06.715Z,38.95
2018-08-24T19:53:34.887Z,39.23
2018-08-24T19:56:03.107Z,39.08
2018-08-24T19:58:36.658Z,39.09
2018-08-24T20:01:04.877Z,39.65
2018-08-24T20:03:33.062Z,39.72
2018-08-24T20:06:06.612Z,39.57
2018-08-24T20:08:40.123Z,40.14
2018-08-24T20:11:08.347Z,39.66
2018-08-24T20:13:36.531Z,39.90
2018-08-24T20:16:10.068Z,40.22
2018-08-24T20:18:38.250Z,39.85
2018-08-24T20:21:06.427Z,39.80
2018-08-24T20:23:34.612Z,39.70
2018-08-24T20:26:02.807Z,40.11
2018-08-24T20:28:30.987Z,40.26
2018-08-24T20:30:59.227Z,40.63
2018-08-24T20:33:27.594Z,41.69
2018-08-24T20:35:55.780Z,42.82
2018-08-24T20:38:24.150Z,43.06
2018-08-24T20:40:52.348Z,42.33
2018-08-24T20:43:20.547Z,43.29
2018-08-24T20:45:48.729Z,42.33
2018-08-24T20:48:16.903Z,42.82
2018-08-24T20:50:45.096Z,42.96
2018-08-24T20:53:13.274Z,41.91
2018-08-24T20:55:41.531Z,41.65
2018-08-24T20:58:09.627Z,42.10
2018-08-24T21:00:37.803Z,41.16
2018-08-24T21:03:06.133Z,41.49
2018-08-24T21:05:34.316Z,41.51
2018-08-24T21:08:02.518Z,41.32
2018-08-24T21:10:30.752Z,41.49
2018-08-24T21:12:58.901Z,40.99
2018-08-24T21:15:27.063Z,42.03
2018-08-24T21:17:55.272Z,41.75
2018-08-24T21:20:23.474Z,42.03
2018-08-24T21:22:51.671Z,42.38
2018-08-24T21:25:19.835Z,41.96
2018-08-24T21:27:48.019Z,41.91
2018-08-24T21:30:16.275Z,42.60
2018-08-24T21:32:44.379Z,41.52
2018-08-24T21:35:12.595Z,41.93
2018-08-24T21:37:40.795Z,41.68
2018-08-24T21:40:08.968Z,41.38
2018-08-24T21:42:37.150Z,41.47
2018-08-24T21:45:05.747Z,41.43
2018-08-24T21:47:33.927Z,42.03
2018-08-24T21:50:02.127Z,42.06
2018-08-24T21:52:30.287Z,42.28
2018-08-24T21:54:58.473Z,42.29
2018-08-24T21:57:26.665Z,42.12
2018-08-24T21:59:54.835Z,42.38
2018-08-24T22:02:23.021Z,42.28
2018-08-24T22:04:51.198Z,42.30
2018-08-24T22:07:19.379Z,41.57
2018-08-24T22:09:47.552Z,41.86
2018-08-24T22:12:15.738Z,41.88
2018-08-24T22:14:43.935Z,41.71
2018-08-24T22:17:12.107Z,42.23
2018-08-24T22:19:40.304Z,42.00
2018-08-24T22:22:08.477Z,43.12
2018-08-24T22:24:36.651Z,42.79
2018-08-24T22:27:05.060Z,42.42
2018-08-24T22:29:33.259Z,41.94
2018-08-24T22:32:01.459Z,42.44
2018-08-24T22:34:29.656Z,42.37
2018-08-24T22:36:57.838Z,42.20
2018-08-24T22:39:26.028Z,41.64
2018-08-24T22:41:54.232Z,42.38
2018-08-24T22:44:22.423Z,42.06
2018-08-24T22:46:50.595Z,41.95
2018-08-24T22:49:18.785Z,42.99
2018-08-24T22:51:46.978Z,42.34
2018-08-24T22:54:15.176Z,42.28
2018-08-24T22:56:43.389Z,41.69
2018-08-24T22:59:11.571Z,41.94
2018-08-24T23:01:39.755Z,42.10
2018-08-24T23:04:07.965Z,41.91
2018-08-24T23:06:36.190Z,41.96
2018-08-24T23:09:06.845Z,42.21
2018-08-24T23:11:35.012Z,42.33
2018-08-24T23:14:03.199Z,42.33
2018-08-24T23:16:31.374Z,42.60
2018-08-24T23:18:59.575Z,42.52
2018-08-24T23:21:27.740Z,42.50
2018-08-24T23:23:55.923Z,42.81
2018-08-24T23:26:24.102Z,43.03
2018-08-24T23:28:52.300Z,42.75
2018-08-24T23:31:20.490Z,42.65
2018-08-24T23:33:48.679Z,42.91
2018-08-24T23:36:16.855Z,42.87
2018-08-24T23:38:45.043Z,42.80
2018-08-24T23:41:13.231Z,43.27
2018-08-24T23:43:41.405Z,43.47
2018-08-24T23:46:09.634Z,43.53
2018-08-24T23:48:37.808Z,43.72
2018-08-24T23:51:05.985Z,44.01
2018-08-24T23:53:34.151Z,43.73
2018-08-24T23:56:02.332Z,43.83
2018-08-24T23:58:30.519Z,43.75
